Terminal Aerodrome Forecast
Issued by NWS Huntsville, AL

Home | Current Version | Previous Version | Text Only | Print | Product List | Glossary On
Versions: 1 2 3 4 5 6 7 8 9 10 11 12 13 14 15 16 17 18 19 20 21 22 23 24 25 26 27 28 29
522
FTUS44 KHUN 241720
TAFHSV
TAF
KHSV 241720Z 2418/2518 20005KT P6SM VCTS SCT040CB
     FM250100 VRB03KT P6SM SCT250
     FM251600 21006KT P6SM SCT040=

USA.gov is the U.S. government's official web portal to all federal, state and local government web resources and services.